Vagabond — WDD3483 — position and weather

sailwx.info

Track history (hours):
 
Tides and Currents Weather Stations Pressure Air Temp Water Temp Dewpoint Dewpoint Depression Visibility Wind Speed Wind Dir Waves Ship Positions

Vagabond

Owner: Smith, Bradford L, Bellevue, WA. More information available from US FCC via Universal Licensing System and Coast Guard Vessel Documentation Center.

Last reported at 2015-May-04 13:05 UTC. Time now 2015-May-04 14:04 UTC.
Position N 47°38' W 122°23'.

Length 27 m.

Type: Pleasure craft. MMSI: 367132020.

Date/timePositionNaut miles runAvg speedWind from/ knotsBaromVisibWave heightAir tempDewpointWater temp
2015-May-04 13:05N 47°38' W 122°23'0 0.0
2015-May-04 01:32N 47°38' W 122°23'0 0.0
2015-May-04 00:20N 47°38' W 122°23'0 0.1
2015-May-03 23:12N 47°38' W 122°23'1116.5
2015-May-03 22:33N 47°27' W 122°24'12 9.5
2015-May-03 21:15N 47°15' W 122°26'0 0.0
2015-May-03 20:27N 47°15' W 122°26'0 0.0
2015-May-03 18:09N 47°15' W 122°26'0 0.1
2015-May-03 17:27N 47°15' W 122°26'0 0.0
2015-May-03 16:21N 47°15' W 122°26'0 0.0
2015-May-03 14:27N 47°15' W 122°26'0 0.0
2015-May-03 12:33N 47°15' W 122°26'0 0.0
2015-May-03 11:33N 47°15' W 122°26'0 0.0
2015-May-03 10:33N 47°15' W 122°26'0 0.0
2015-May-03 09:33N 47°15' W 122°26'0 0.0
2015-May-03 08:21N 47°15' W 122°26'0 0.0
2015-May-03 07:24N 47°15' W 122°26'0 0.0
2015-May-03 05:18N 47°15' W 122°26'0 0.1
2015-May-03 04:30N 47°15' W 122°26'0 0.0
2015-May-03 03:21N 47°15' W 122°26'0 0.1
2015-May-03 02:33N 47°15' W 122°26'0 0.0
2015-May-03 01:21N 47°15' W 122°26'0 0.0
2015-May-03 00:27N 47°15' W 122°26'2 0.3
2015-May-02 18:33N 47°17' W 122°27'8 8.5
2015-May-02 17:33N 47°25' W 122°23'10 9.6
2015-May-02 16:33N 47°34' W 122°27'4 2.7
2015-May-02 14:56N 47°38' W 122°23'0 0.0
2015-May-02 14:14N 47°38' W 122°23'0 0.0
2015-May-02 13:23N 47°38' W 122°23'0 0.0
2015-May-02 12:56N 47°38' W 122°23'0 0.0
2015-May-02 10:44N 47°38' W 122°23'0 0.0
2015-May-02 10:17N 47°38' W 122°23'0 0.0
2015-May-02 10:14N 47°38' W 122°23'0 0.0
2015-May-02 09:14N 47°38' W 122°23'0 0.0
2015-May-02 04:08N 47°38' W 122°23'0 0.0
2015-May-02 01:50N 47°38' W 122°23'0 0.0
2015-May-02 00:59N 47°38' W 122°23'0 0.0
2015-May-01 23:17N 47°38' W 122°23'0 0.0
2015-May-01 23:17N 47°38' W 122°23'0 0.0
2015-May-01 21:20N 47°38' W 122°23'0 0.0
2015-May-01 20:26N 47°38' W 122°23'0 0.0
2015-May-01 20:26N 47°38' W 122°23'0 0.0
2015-May-01 18:44N 47°38' W 122°23'0 0.0
2015-May-01 17:14N 47°38' W 122°23'0 0.0
2015-May-01 17:14N 47°38' W 122°23'0 0.0
2015-May-01 16:32N 47°38' W 122°23'0 0.0
2015-May-01 14:32N 47°38' W 122°23'0 0.0
2015-May-01 14:32N 47°38' W 122°23'0 0.0
2015-May-01 10:35N 47°38' W 122°23'0 0.0
2015-May-01 09:11N 47°38' W 122°23'0 0.0
2015-May-01 06:14N 47°38' W 122°23'0 0.0
2015-May-01 06:14N 47°38' W 122°23'0 0.0
2015-May-01 04:29N 47°38' W 122°23'0 0.0
2015-May-01 01:50N 47°38' W 122°23'0 0.0
2015-May-01 00:32N 47°38' W 122°23'0 0.0
2015-Apr-30 21:50N 47°38' W 122°23'0 0.0
2015-Apr-30 17:26N 47°38' W 122°23'0 0.0
2015-Apr-30 17:08N 47°38' W 122°23'0 0.0
2015-Apr-30 16:29N 47°38' W 122°23'0 0.0
2015-Apr-30 15:20N 47°38' W 122°23'0 0.0
2015-Apr-30 14:41N 47°38' W 122°23'0 0.0
2015-Apr-30 14:32N 47°38' W 122°23'0 0.0
2015-Apr-30 14:05N 47°38' W 122°23'0 0.0
2015-Apr-30 12:11N 47°38' W 122°23'0 0.0
2015-Apr-30 11:29N 47°38' W 122°23'0 0.0
2015-Apr-30 10:17N 47°38' W 122°23'0 0.0
2015-Apr-30 10:17N 47°38' W 122°23'0 0.0
2015-Apr-30 09:29N 47°38' W 122°23'0 0.0
2015-Apr-30 09:17N 47°38' W 122°23'0 0.0
2015-Apr-30 08:05N 47°38' W 122°23'0 0.0
2015-Apr-30 07:56N 47°38' W 122°23'0 0.0
2015-Apr-30 06:29N 47°38' W 122°23'0 0.0
2015-Apr-30 06:11N 47°38' W 122°23'0 0.0
2015-Apr-30 05:56N 47°38' W 122°23'0 0.0
2015-Apr-30 05:26N 47°38' W 122°23'0 0.0
2015-Apr-30 04:33N 47°38' W 122°23'0 0.0
2015-Apr-30 03:23N 47°38' W 122°23'0 0.0
2015-Apr-30 02:06N 47°38' W 122°23'0 0.0
2015-Apr-30 01:11N 47°38' W 122°23'0 0.0
2015-Apr-30 00:59N 47°38' W 122°23'0 0.0
2015-Apr-29 22:23N 47°38' W 122°23'0 0.0
2015-Apr-29 21:35N 47°38' W 122°23'0 0.0
2015-Apr-29 21:17N 47°38' W 122°23'0 0.0
2015-Apr-29 20:50N 47°38' W 122°23'0 0.0
2015-Apr-29 20:20N 47°38' W 122°23'0 0.0
2015-Apr-29 20:20N 47°38' W 122°23'0 0.0
2015-Apr-29 18:32N 47°38' W 122°23'0 0.0
2015-Apr-29 17:14N 47°38' W 122°23'0 0.0
2015-Apr-29 16:38N 47°38' W 122°23'0 0.0
2015-Apr-29 16:23N 47°38' W 122°23'0 0.0
2015-Apr-29 16:23N 47°38' W 122°23'0 0.0
2015-Apr-29 15:32N 47°38' W 122°23'0 0.0
2015-Apr-29 14:32N 47°38' W 122°23'0 0.0
2015-Apr-29 14:26N 47°38' W 122°23'0 0.0
2015-Apr-29 13:32N 47°38' W 122°23'0 0.0
2015-Apr-29 13:32N 47°38' W 122°23'0 0.0
2015-Apr-29 12:23N 47°38' W 122°23'0 0.0
2015-Apr-29 12:02N 47°38' W 122°23'0 0.0
2015-Apr-29 11:32N 47°38' W 122°23'0 0.0
2015-Apr-29 10:11N 47°38' W 122°23'0 0.0
2015-Apr-29 09:29N 47°38' W 122°23'0 0.1
2015-Apr-29 09:26N 47°38' W 122°23'0 0.0
2015-Apr-29 08:29N 47°38' W 122°23'0 0.0
2015-Apr-29 08:11N 47°38' W 122°23'0 0.0
2015-Apr-29 06:41N 47°38' W 122°23'0 0.0
2015-Apr-29 06:26N 47°38' W 122°23'0 0.0
2015-Apr-29 06:26N 47°38' W 122°23'0 0.0
2015-Apr-29 05:50N 47°38' W 122°23'0 0.0
2015-Apr-29 05:24N 47°38' W 122°23'0 0.0
2015-Apr-29 04:21N 47°38' W 122°23'0 0.0
2015-Apr-29 04:20N 47°38' W 122°23'0 0.0
2015-Apr-29 03:14N 47°38' W 122°23'0 0.0
2015-Apr-29 02:50N 47°38' W 122°23'0 0.0
2015-Apr-29 02:23N 47°38' W 122°23'0 0.0
2015-Apr-29 01:20N 47°38' W 122°23'0 0.0
2015-Apr-29 01:20N 47°38' W 122°23'0 0.0
2015-Apr-29 00:20N 47°38' W 122°23'3 5.1
2015-Apr-28 23:50N 47°39' W 122°27'3 2.0
2015-Apr-28 22:33N 47°38' W 122°23'0 0.0
2015-Apr-28 22:33N 47°38' W 122°23'0 0.0
2015-Apr-28 22:03N 47°38' W 122°23'0 0.0
2015-Apr-28 21:27N 47°38' W 122°23'0 0.0
2015-Apr-28 21:18N 47°38' W 122°23'0 0.0
2015-Apr-28 20:12N 47°38' W 122°23'0 0.0
2015-Apr-28 20:12N 47°38' W 122°23'0 0.0
2015-Apr-28 18:12N 47°38' W 122°23'0 0.0
2015-Apr-28 18:12N 47°38' W 122°23'0 0.0
2015-Apr-28 17:09N 47°38' W 122°23'0 0.0
2015-Apr-28 16:15N 47°38' W 122°23'0 0.0
2015-Apr-28 12:21N 47°38' W 122°23'0 0.0
2015-Apr-28 11:15N 47°38' W 122°23'0 0.0
2015-Apr-28 06:06N 47°38' W 122°23'0 0.0
2015-Apr-28 06:00N 47°38' W 122°23'0 0.0
2015-Apr-28 04:21N 47°38' W 122°23'0 0.1
2015-Apr-28 04:15N 47°38' W 122°23'0 0.0
2015-Apr-28 03:18N 47°38' W 122°23'0 0.0
2015-Apr-28 02:21N 47°38' W 122°23'0 0.0
2015-Apr-28 01:33N 47°38' W 122°23'0 0.0
2015-Apr-28 01:24N 47°38' W 122°23'0 0.0
2015-Apr-28 00:33N 47°38' W 122°23'0 0.0
2015-Apr-28 00:09N 47°38' W 122°23'0 0.0
2015-Apr-27 23:21N 47°38' W 122°23'0 0.0
2015-Apr-27 22:48N 47°38' W 122°23'0 0.0
2015-Apr-27 22:30N 47°38' W 122°23'0 0.0
2015-Apr-27 22:18N 47°38' W 122°23'0 0.0
2015-Apr-27 18:33N 47°38' W 122°23'0 0.0
2015-Apr-27 18:12N 47°38' W 122°23'0 0.0
2015-Apr-27 17:03N 47°38' W 122°23'0 0.0
2015-Apr-27 14:51N 47°38' W 122°23'0 0.0
2015-Apr-27 14:03N 47°38' W 122°23'0 0.0
2015-Apr-27 13:51N 47°38' W 122°23'0 0.0
2015-Apr-27 13:27N 47°38' W 122°23'0 0.0
2015-Apr-27 13:21N 47°38' W 122°23'0 0.0
2015-Apr-27 12:33N 47°38' W 122°23'0 0.0
2015-Apr-27 11:51N 47°38' W 122°23'0 0.0
2015-Apr-27 08:24N 47°38' W 122°23'0 0.0
2015-Apr-27 06:15N 47°38' W 122°23'0 0.0
2015-Apr-27 04:33N 47°38' W 122°23'0 0.0
2015-Apr-27 03:27N 47°38' W 122°23'0 0.0
2015-Apr-27 03:27N 47°38' W 122°23'0 0.0
2015-Apr-27 02:33N 47°38' W 122°23'0 0.0
2015-Apr-27 01:27N 47°38' W 122°23'0 0.0
2015-Apr-27 01:21N 47°38' W 122°23'0 0.0
2015-Apr-27 00:33N 47°38' W 122°23'0 0.0
2015-Apr-26 23:21N 47°38' W 122°23'0 0.0
2015-Apr-26 23:21N 47°38' W 122°23'0 0.0
2015-Apr-26 22:09N 47°38' W 122°23'0 0.0
2015-Apr-26 21:00N 47°38' W 122°23'0 0.0
2015-Apr-26 17:27N 47°38' W 122°23'0 0.0
2015-Apr-26 17:27N 47°38' W 122°23'0 0.0
2015-Apr-26 15:03N 47°38' W 122°23'0 0.0
2015-Apr-26 14:30N 47°38' W 122°23'0 0.0
2015-Apr-26 14:03N 47°38' W 122°23'0 0.0
2015-Apr-26 13:33N 47°38' W 122°23'0 0.0
2015-Apr-26 13:33N 47°38' W 122°23'0 0.0
2015-Apr-26 12:09N 47°38' W 122°23'0 0.0
2015-Apr-26 11:15N 47°38' W 122°23'0 0.0
2015-Apr-26 10:30N 47°38' W 122°23'0 0.0
2015-Apr-26 10:30N 47°38' W 122°23'0 0.0
2015-Apr-26 09:09N 47°38' W 122°23'0 0.0
2015-Apr-26 08:21N 47°38' W 122°23'0 0.0
2015-Apr-26 05:03N 47°38' W 122°23'0 0.0
2015-Apr-26 02:21N 47°38' W 122°23'0 0.0
2015-Apr-26 01:00N 47°38' W 122°23'0 0.0
2015-Apr-25 23:39N 47°38' W 122°23'0 0.0
2015-Apr-25 23:15N 47°38' W 122°23'0 0.0
2015-Apr-25 00:03N 47°38' W 122°23'0 0.0
2015-Apr-24 21:03N 47°38' W 122°23'0 0.0
2015-Apr-24 16:15N 47°38' W 122°23'5 6.7
2015-Apr-24 15:32N 47°33' W 122°21'  
Track history (hours):
 
Tides and Currents Weather Stations Pressure Air Temp Water Temp Dewpoint Dewpoint Depression Visibility Wind Speed Wind Dir Waves Ship Positions

Vagabond

Owner: Smith, Bradford L, Bellevue, WA. More information available from US FCC via Universal Licensing System and Coast Guard Vessel Documentation Center.

Last reported at 2015-May-04 13:05 UTC. Time now 2015-May-04 14:04 UTC.
Position N 47°38' W 122°23'.

Length 27 m.

Type: Pleasure craft. MMSI: 367132020.

Date/timePositionNaut miles runAvg speedWind from/ knotsBaromVisibWave heightAir tempDewpointWater temp
2015-May-04 13:05N 47°38' W 122°23'0 0.0
2015-May-04 01:32N 47°38' W 122°23'0 0.0
2015-May-04 00:20N 47°38' W 122°23'0 0.1
2015-May-03 23:12N 47°38' W 122°23'1116.5
2015-May-03 22:33N 47°27' W 122°24'12 9.5
2015-May-03 21:15N 47°15' W 122°26'0 0.0
2015-May-03 20:27N 47°15' W 122°26'0 0.0
2015-May-03 18:09N 47°15' W 122°26'0 0.1
2015-May-03 17:27N 47°15' W 122°26'0 0.0
2015-May-03 16:21N 47°15' W 122°26'0 0.0
2015-May-03 14:27N 47°15' W 122°26'0 0.0
2015-May-03 12:33N 47°15' W 122°26'0 0.0
2015-May-03 11:33N 47°15' W 122°26'0 0.0
2015-May-03 10:33N 47°15' W 122°26'0 0.0
2015-May-03 09:33N 47°15' W 122°26'0 0.0
2015-May-03 08:21N 47°15' W 122°26'0 0.0
2015-May-03 07:24N 47°15' W 122°26'0 0.0
2015-May-03 05:18N 47°15' W 122°26'0 0.1
2015-May-03 04:30N 47°15' W 122°26'0 0.0
2015-May-03 03:21N 47°15' W 122°26'0 0.1
2015-May-03 02:33N 47°15' W 122°26'0 0.0
2015-May-03 01:21N 47°15' W 122°26'0 0.0
2015-May-03 00:27N 47°15' W 122°26'2 0.3
2015-May-02 18:33N 47°17' W 122°27'8 8.5
2015-May-02 17:33N 47°25' W 122°23'10 9.6
2015-May-02 16:33N 47°34' W 122°27'4 2.7
2015-May-02 14:56N 47°38' W 122°23'0 0.0
2015-May-02 14:14N 47°38' W 122°23'0 0.0
2015-May-02 13:23N 47°38' W 122°23'0 0.0
2015-May-02 12:56N 47°38' W 122°23'0 0.0
2015-May-02 10:44N 47°38' W 122°23'0 0.0
2015-May-02 10:17N 47°38' W 122°23'0 0.0
2015-May-02 10:14N 47°38' W 122°23'0 0.0
2015-May-02 09:14N 47°38' W 122°23'0 0.0
2015-May-02 04:08N 47°38' W 122°23'0 0.0
2015-May-02 01:50N 47°38' W 122°23'0 0.0
2015-May-02 00:59N 47°38' W 122°23'0 0.0
2015-May-01 23:17N 47°38' W 122°23'0 0.0
2015-May-01 23:17N 47°38' W 122°23'0 0.0
2015-May-01 21:20N 47°38' W 122°23'0 0.0
2015-May-01 20:26N 47°38' W 122°23'0 0.0
2015-May-01 20:26N 47°38' W 122°23'0 0.0
2015-May-01 18:44N 47°38' W 122°23'0 0.0
2015-May-01 17:14N 47°38' W 122°23'0 0.0
2015-May-01 17:14N 47°38' W 122°23'0 0.0
2015-May-01 16:32N 47°38' W 122°23'0 0.0
2015-May-01 14:32N 47°38' W 122°23'0 0.0
2015-May-01 14:32N 47°38' W 122°23'0 0.0
2015-May-01 10:35N 47°38' W 122°23'0 0.0
2015-May-01 09:11N 47°38' W 122°23'0 0.0
2015-May-01 06:14N 47°38' W 122°23'0 0.0
2015-May-01 06:14N 47°38' W 122°23'0 0.0
2015-May-01 04:29N 47°38' W 122°23'0 0.0
2015-May-01 01:50N 47°38' W 122°23'0 0.0
2015-May-01 00:32N 47°38' W 122°23'0 0.0
2015-Apr-30 21:50N 47°38' W 122°23'0 0.0
2015-Apr-30 17:26N 47°38' W 122°23'0 0.0
2015-Apr-30 17:08N 47°38' W 122°23'0 0.0
2015-Apr-30 16:29N 47°38' W 122°23'0 0.0
2015-Apr-30 15:20N 47°38' W 122°23'0 0.0
2015-Apr-30 14:41N 47°38' W 122°23'0 0.0
2015-Apr-30 14:32N 47°38' W 122°23'0 0.0
2015-Apr-30 14:05N 47°38' W 122°23'0 0.0
2015-Apr-30 12:11N 47°38' W 122°23'0 0.0
2015-Apr-30 11:29N 47°38' W 122°23'0 0.0
2015-Apr-30 10:17N 47°38' W 122°23'0 0.0
2015-Apr-30 10:17N 47°38' W 122°23'0 0.0
2015-Apr-30 09:29N 47°38' W 122°23'0 0.0
2015-Apr-30 09:17N 47°38' W 122°23'0 0.0
2015-Apr-30 08:05N 47°38' W 122°23'0 0.0
2015-Apr-30 07:56N 47°38' W 122°23'0 0.0
2015-Apr-30 06:29N 47°38' W 122°23'0 0.0
2015-Apr-30 06:11N 47°38' W 122°23'0 0.0
2015-Apr-30 05:56N 47°38' W 122°23'0 0.0
2015-Apr-30 05:26N 47°38' W 122°23'0 0.0
2015-Apr-30 04:33N 47°38' W 122°23'0 0.0
2015-Apr-30 03:23N 47°38' W 122°23'0 0.0
2015-Apr-30 02:06N 47°38' W 122°23'0 0.0
2015-Apr-30 01:11N 47°38' W 122°23'0 0.0
2015-Apr-30 00:59N 47°38' W 122°23'0 0.0
2015-Apr-29 22:23N 47°38' W 122°23'0 0.0
2015-Apr-29 21:35N 47°38' W 122°23'0 0.0
2015-Apr-29 21:17N 47°38' W 122°23'0 0.0
2015-Apr-29 20:50N 47°38' W 122°23'0 0.0
2015-Apr-29 20:20N 47°38' W 122°23'0 0.0
2015-Apr-29 20:20N 47°38' W 122°23'0 0.0
2015-Apr-29 18:32N 47°38' W 122°23'0 0.0
2015-Apr-29 17:14N 47°38' W 122°23'0 0.0
2015-Apr-29 16:38N 47°38' W 122°23'0 0.0
2015-Apr-29 16:23N 47°38' W 122°23'0 0.0
2015-Apr-29 16:23N 47°38' W 122°23'0 0.0
2015-Apr-29 15:32N 47°38' W 122°23'0 0.0
2015-Apr-29 14:32N 47°38' W 122°23'0 0.0
2015-Apr-29 14:26N 47°38' W 122°23'0 0.0
2015-Apr-29 13:32N 47°38' W 122°23'0 0.0
2015-Apr-29 13:32N 47°38' W 122°23'0 0.0
2015-Apr-29 12:23N 47°38' W 122°23'0 0.0
2015-Apr-29 12:02N 47°38' W 122°23'0 0.0
2015-Apr-29 11:32N 47°38' W 122°23'0 0.0
2015-Apr-29 10:11N 47°38' W 122°23'0 0.0
2015-Apr-29 09:29N 47°38' W 122°23'0 0.1
2015-Apr-29 09:26N 47°38' W 122°23'0 0.0
2015-Apr-29 08:29N 47°38' W 122°23'0 0.0
2015-Apr-29 08:11N 47°38' W 122°23'0 0.0
2015-Apr-29 06:41N 47°38' W 122°23'0 0.0
2015-Apr-29 06:26N 47°38' W 122°23'0 0.0
2015-Apr-29 06:26N 47°38' W 122°23'0 0.0
2015-Apr-29 05:50N 47°38' W 122°23'0 0.0
2015-Apr-29 05:24N 47°38' W 122°23'0 0.0
2015-Apr-29 04:21N 47°38' W 122°23'0 0.0
2015-Apr-29 04:20N 47°38' W 122°23'0 0.0
2015-Apr-29 03:14N 47°38' W 122°23'0 0.0
2015-Apr-29 02:50N 47°38' W 122°23'0 0.0
2015-Apr-29 02:23N 47°38' W 122°23'0 0.0
2015-Apr-29 01:20N 47°38' W 122°23'0 0.0
2015-Apr-29 01:20N 47°38' W 122°23'0 0.0
2015-Apr-29 00:20N 47°38' W 122°23'3 5.1
2015-Apr-28 23:50N 47°39' W 122°27'3 2.0
2015-Apr-28 22:33N 47°38' W 122°23'0 0.0
2015-Apr-28 22:33N 47°38' W 122°23'0 0.0
2015-Apr-28 22:03N 47°38' W 122°23'0 0.0
2015-Apr-28 21:27N 47°38' W 122°23'0 0.0
2015-Apr-28 21:18N 47°38' W 122°23'0 0.0
2015-Apr-28 20:12N 47°38' W 122°23'0 0.0
2015-Apr-28 20:12N 47°38' W 122°23'0 0.0
2015-Apr-28 18:12N 47°38' W 122°23'0 0.0
2015-Apr-28 18:12N 47°38' W 122°23'0 0.0
2015-Apr-28 17:09N 47°38' W 122°23'0 0.0
2015-Apr-28 16:15N 47°38' W 122°23'0 0.0
2015-Apr-28 12:21N 47°38' W 122°23'0 0.0
2015-Apr-28 11:15N 47°38' W 122°23'0 0.0
2015-Apr-28 06:06N 47°38' W 122°23'0 0.0
2015-Apr-28 06:00N 47°38' W 122°23'0 0.0
2015-Apr-28 04:21N 47°38' W 122°23'0 0.1
2015-Apr-28 04:15N 47°38' W 122°23'0 0.0
2015-Apr-28 03:18N 47°38' W 122°23'0 0.0
2015-Apr-28 02:21N 47°38' W 122°23'0 0.0
2015-Apr-28 01:33N 47°38' W 122°23'0 0.0
2015-Apr-28 01:24N 47°38' W 122°23'0 0.0
2015-Apr-28 00:33N 47°38' W 122°23'0 0.0
2015-Apr-28 00:09N 47°38' W 122°23'0 0.0
2015-Apr-27 23:21N 47°38' W 122°23'0 0.0
2015-Apr-27 22:48N 47°38' W 122°23'0 0.0
2015-Apr-27 22:30N 47°38' W 122°23'0 0.0
2015-Apr-27 22:18N 47°38' W 122°23'0 0.0
2015-Apr-27 18:33N 47°38' W 122°23'0 0.0
2015-Apr-27 18:12N 47°38' W 122°23'0 0.0
2015-Apr-27 17:03N 47°38' W 122°23'0 0.0
2015-Apr-27 14:51N 47°38' W 122°23'0 0.0
2015-Apr-27 14:03N 47°38' W 122°23'0 0.0
2015-Apr-27 13:51N 47°38' W 122°23'0 0.0
2015-Apr-27 13:27N 47°38' W 122°23'0 0.0
2015-Apr-27 13:21N 47°38' W 122°23'0 0.0
2015-Apr-27 12:33N 47°38' W 122°23'0 0.0
2015-Apr-27 11:51N 47°38' W 122°23'0 0.0
2015-Apr-27 08:24N 47°38' W 122°23'0 0.0
2015-Apr-27 06:15N 47°38' W 122°23'0 0.0
2015-Apr-27 04:33N 47°38' W 122°23'0 0.0
2015-Apr-27 03:27N 47°38' W 122°23'0 0.0
2015-Apr-27 03:27N 47°38' W 122°23'0 0.0
2015-Apr-27 02:33N 47°38' W 122°23'0 0.0
2015-Apr-27 01:27N 47°38' W 122°23'0 0.0
2015-Apr-27 01:21N 47°38' W 122°23'0 0.0
2015-Apr-27 00:33N 47°38' W 122°23'0 0.0
2015-Apr-26 23:21N 47°38' W 122°23'0 0.0
2015-Apr-26 23:21N 47°38' W 122°23'0 0.0
2015-Apr-26 22:09N 47°38' W 122°23'0 0.0
2015-Apr-26 21:00N 47°38' W 122°23'0 0.0
2015-Apr-26 17:27N 47°38' W 122°23'0 0.0
2015-Apr-26 17:27N 47°38' W 122°23'0 0.0
2015-Apr-26 15:03N 47°38' W 122°23'0 0.0
2015-Apr-26 14:30N 47°38' W 122°23'0 0.0
2015-Apr-26 14:03N 47°38' W 122°23'0 0.0
2015-Apr-26 13:33N 47°38' W 122°23'0 0.0
2015-Apr-26 13:33N 47°38' W 122°23'0 0.0
2015-Apr-26 12:09N 47°38' W 122°23'0 0.0
2015-Apr-26 11:15N 47°38' W 122°23'0 0.0
2015-Apr-26 10:30N 47°38' W 122°23'0 0.0
2015-Apr-26 10:30N 47°38' W 122°23'0 0.0
2015-Apr-26 09:09N 47°38' W 122°23'0 0.0
2015-Apr-26 08:21N 47°38' W 122°23'0 0.0
2015-Apr-26 05:03N 47°38' W 122°23'0 0.0
2015-Apr-26 02:21N 47°38' W 122°23'0 0.0
2015-Apr-26 01:00N 47°38' W 122°23'0 0.0
2015-Apr-25 23:39N 47°38' W 122°23'0 0.0
2015-Apr-25 23:15N 47°38' W 122°23'0 0.0
2015-Apr-25 00:03N 47°38' W 122°23'0 0.0
2015-Apr-24 21:03N 47°38' W 122°23'0 0.0
2015-Apr-24 16:15N 47°38' W 122°23'5 6.7
2015-Apr-24 15:32N 47°33' W 122°21'  

Dump ship's entire track history